Time;durP1;ratioP1;P1;durP2;ratioP2;P2;SDS_P1;SDS_P2;PMS_P1;PMS_P2;Temp;Humidity;BMP_temperature;BMP_pressure;BME280_temperature;BME280_humidity;BME280_pressure;Samples;Min_cycle;Max_cycle;Signal;HPM_P1;HPM_P2
2022/06/15 00:03:17;;;;;;;3.03;2.60;;;;;;;21.58;51.74;97288.44;5066786;28;20664;-73
2022/06/15 00:06:04;;;;;;;3.97;2.30;;;;;;;21.51;52.21;97282.88;5067451;28;20205;-71
2022/06/15 00:09:25;;;;;;;3.27;2.40;;;;;;;21.51;52.05;97287.31;5066600;28;20259;-71
2022/06/15 00:12:46;;;;;;;6.70;3.30;;;;;;;21.39;52.53;97283.09;5047866;28;20686;-71
2022/06/15 00:16:06;;;;;;;5.50;2.50;;;;;;;21.37;52.29;97285.84;5066673;28;20204;-72
2022/06/15 00:19:28;;;;;;;3.50;2.70;;;;;;;21.29;52.64;97279.56;5067199;28;20220;-73
2022/06/15 00:22:48;;;;;;;3.80;2.60;;;;;;;21.25;52.28;97267.59;5067058;28;20198;-72
2022/06/15 00:26:09;;;;;;;7.23;2.47;;;;;;;21.13;52.98;97272.13;5065346;28;20225;-72
2022/06/15 00:29:30;;;;;;;5.07;2.60;;;;;;;21.28;52.74;97280.53;5065654;28;20274;-72
2022/06/15 00:32:51;;;;;;;5.83;2.70;;;;;;;21.12;52.62;97274.88;5067035;28;20186;-72
2022/06/15 00:36:12;;;;;;;2.80;2.50;;;;;;;21.03;52.44;97282.59;5049111;28;20730;-71
2022/06/15 00:39:35;;;;;;;2.73;2.47;;;;;;;20.83;52.86;97286.03;5065892;28;20182;-71
2022/06/15 00:42:56;;;;;;;2.93;2.53;;;;;;;20.88;52.77;97280.34;5047682;28;20224;-71
2022/06/15 00:46:17;;;;;;;3.37;2.20;;;;;;;20.78;52.24;97271.56;5050588;28;20696;-71
2022/06/15 00:49:29;;;;;;;3.00;2.30;;;;;;;20.91;51.13;97274.84;5066813;28;20228;-71
2022/06/15 00:53:14;;;;;;;2.90;2.40;;;;;;;20.54;51.18;97271.78;5066544;28;20284;-71
2022/06/15 00:56:35;;;;;;;6.43;2.50;;;;;;;20.53;49.94;97270.09;5047497;28;20196;-71
2022/06/15 00:59:44;;;;;;;4.87;2.67;;;;;;;20.53;48.72;97271.91;5047405;28;20228;-71
2022/06/15 01:03:05;;;;;;;2.80;2.00;;;;;;;20.29;49.20;97274.75;5066612;28;20664;-71
2022/06/15 01:06:19;;;;;;;5.03;2.10;;;;;;;20.36;48.25;97264.56;5066683;28;20232;-71
2022/06/15 01:09:08;;;;;;;2.60;2.30;;;;;;;20.47;48.03;97273.25;5004351;28;20205;-71
2022/06/15 01:12:28;;;;;;;2.97;2.20;;;;;;;20.64;47.17;97272.72;5065254;28;20188;-71
2022/06/15 01:16:04;;;;;;;2.07;1.87;;;;;;;20.69;47.46;97267.88;5022201;28;20284;-71
2022/06/15 01:19:23;;;;;;;3.43;2.10;;;;;;;20.85;46.84;97268.31;5053281;28;20215;-71
2022/06/15 01:22:57;;;;;;;3.23;2.37;;;;;;;20.73;46.49;97274.56;5070145;28;20192;-71
2022/06/15 01:25:53;;;;;;;4.53;2.40;;;;;;;20.71;46.66;97270.41;5051021;28;20774;-71
2022/06/15 01:29:00;;;;;;;4.07;2.50;;;;;;;20.81;46.80;97269.50;5052581;28;20250;-71
2022/06/15 01:32:33;;;;;;;5.00;2.60;;;;;;;20.72;46.41;97270.28;5070818;28;20702;-71
2022/06/15 01:35:48;;;;;;;2.17;1.90;;;;;;;20.53;46.54;97271.91;5052088;28;20271;-71
2022/06/15 01:38:54;;;;;;;6.30;2.30;;;;;;;20.31;47.26;97278.09;5050977;28;20200;-72
2022/06/15 01:42:24;;;;;;;5.47;2.70;;;;;;;20.11;47.79;97260.41;5070358;28;20188;-71
2022/06/15 01:45:44;;;;;;;6.50;2.20;;;;;;;19.91;48.55;97266.41;5052538;28;20220;-71
2022/06/15 01:49:08;;;;;;;4.17;2.43;;;;;;;19.84;48.52;97267.88;5052729;28;20193;-70
2022/06/15 01:52:29;;;;;;;6.27;2.30;;;;;;;20.02;48.35;97263.78;5068651;28;20191;-70
2022/06/15 01:55:52;;;;;;;5.00;2.33;;;;;;;20.06;48.30;97276.56;5051077;28;20188;-71
2022/06/15 01:59:13;;;;;;;3.83;2.00;;;;;;;19.77;49.11;97278.03;5035507;28;20584;-71
2022/06/15 02:01:54;;;;;;;4.10;2.37;;;;;;;20.05;48.63;97281.94;5052296;28;20245;-71
2022/06/15 02:05:17;;;;;;;4.00;2.10;;;;;;;20.28;48.18;97289.69;5050401;28;20782;-71
2022/06/15 02:08:56;;;;;;;2.97;2.10;;;;;;;20.19;47.88;97284.31;5068607;28;20245;-71
2022/06/15 02:12:16;;;;;;;4.53;2.37;;;;;;;20.27;47.91;97289.81;5069723;28;20659;-71
2022/06/15 02:15:37;;;;;;;3.27;2.77;;;;;;;20.38;47.73;97289.75;5070426;28;20290;-71
2022/06/15 02:19:02;;;;;;;4.10;2.47;;;;;;;20.21;47.70;97295.56;5051789;28;20207;-71
2022/06/15 02:22:22;;;;;;;3.37;1.93;;;;;;;19.84;48.49;97289.75;5050078;28;20195;-71
2022/06/15 02:25:43;;;;;;;3.00;2.27;;;;;;;19.84;48.38;97294.16;5050341;28;20237;-70
2022/06/15 02:29:11;;;;;;;3.67;2.47;;;;;;;19.82;48.05;97285.56;5034810;28;20192;-70
2022/06/15 02:32:35;;;;;;;3.50;2.13;;;;;;;19.78;47.89;97294.63;5069507;28;20192;-71
2022/06/15 02:35:56;;;;;;;3.30;2.23;;;;;;;19.58;47.75;97298.81;5050336;28;20294;-71
2022/06/15 02:39:17;;;;;;;2.67;2.40;;;;;;;19.36;48.73;97286.50;5049777;28;20199;-71
2022/06/15 02:42:21;;;;;;;3.77;2.47;;;;;;;19.45;47.87;97298.91;5034205;28;20598;-71
2022/06/15 02:45:50;;;;;;;6.63;2.60;;;;;;;19.53;47.08;97293.09;5038378;28;20191;-71
2022/06/15 02:49:11;;;;;;;4.83;2.57;;;;;;;19.59;47.77;97300.50;5050651;28;20185;-70
2022/06/15 02:52:36;;;;;;;4.67;2.33;;;;;;;19.36;48.09;97299.63;5049899;28;20199;-71
2022/06/15 02:55:57;;;;;;;4.33;2.40;;;;;;;19.29;47.81;97308.03;5049948;28;20741;-71
2022/06/15 02:59:17;;;;;;;2.93;2.03;;;;;;;19.33;48.15;97304.25;5050639;28;20201;-71
2022/06/15 03:02:40;;;;;;;7.00;2.47;;;;;;;19.35;47.89;97308.44;5051351;28;20246;-71
2022/06/15 03:06:02;;;;;;;3.73;2.30;;;;;;;19.20;47.82;97301.72;5049847;28;20270;-71
2022/06/15 03:09:24;;;;;;;2.60;2.40;;;;;;;19.41;46.70;97302.72;5049446;28;20189;-71
2022/06/15 03:12:47;;;;;;;3.03;2.13;;;;;;;19.46;46.96;97305.84;5050667;28;20252;-71
2022/06/15 03:16:08;;;;;;;4.20;2.33;;;;;;;19.78;46.16;97315.66;5050819;28;20619;-69
2022/06/15 03:19:31;;;;;;;4.00;1.97;;;;;;;19.93;46.56;97310.03;5050450;28;20635;-71
2022/06/15 03:22:53;;;;;;;3.33;2.57;;;;;;;20.23;48.81;97309.44;5049354;28;20288;-71
2022/06/15 03:26:14;;;;;;;5.27;2.80;;;;;;;20.37;51.26;97313.56;5049306;28;20301;-71
2022/06/15 03:29:36;;;;;;;6.80;3.20;;;;;;;20.56;52.21;97314.59;5068493;28;20659;-73
2022/06/15 03:32:59;;;;;;;6.77;3.70;;;;;;;20.49;53.46;97318.69;5050830;28;20880;-72
2022/06/15 03:36:22;;;;;;;12.00;5.63;;;;;;;20.33;54.64;97320.88;5035608;28;20207;-73
2022/06/15 03:39:44;;;;;;;7.00;3.77;;;;;;;19.68;56.37;97325.22;5047718;28;20207;-72
2022/06/15 03:43:04;;;;;;;9.63;4.23;;;;;;;19.97;56.10;97327.22;5067150;28;20280;-73
2022/06/15 03:46:25;;;;;;;6.37;3.77;;;;;;;20.59;54.36;97322.25;5050148;28;20637;-73
2022/06/15 03:49:52;;;;;;;9.27;4.37;;;;;;;21.17;52.07;97302.50;5050830;28;20185;-73
2022/06/15 03:53:13;;;;;;;6.37;3.80;;;;;;;21.57;51.60;97323.69;5048487;28;20186;-72
2022/06/15 03:56:35;;;;;;;8.97;3.77;;;;;;;22.03;49.92;97324.03;5048367;28;20624;-73
2022/06/15 04:00:07;;;;;;;8.33;3.57;;;;;;;22.30;49.96;97316.34;5050547;28;20211;-73
2022/06/15 04:03:30;;;;;;;7.53;4.20;;;;;;;22.83;49.63;97327.47;5068227;28;20187;-73
2022/06/15 04:07:00;;;;;;;7.90;4.20;;;;;;;22.97;48.65;97320.91;5040734;28;20196;-72
2022/06/15 04:10:21;;;;;;;10.03;4.57;;;;;;;23.53;47.20;97332.44;5045869;28;20194;-73
2022/06/15 04:13:45;;;;;;;11.77;4.90;;;;;;;23.95;47.08;97333.66;5028754;28;20184;-73
2022/06/15 04:17:06;;;;;;;12.40;4.17;;;;;;;24.05;47.27;97333.69;5030257;28;20744;-71
2022/06/15 04:20:44;;;;;;;8.33;4.47;;;;;;;24.40;44.73;97338.25;5030345;28;20223;-73
2022/06/15 04:24:11;;;;;;;17.33;6.90;;;;;;;24.38;44.68;97333.06;5046410;28;20584;-73
2022/06/15 04:27:32;;;;;;;7.17;3.57;;;;;;;24.18;45.70;97331.50;5034633;28;20207;-72
2022/06/15 04:30:54;;;;;;;5.90;3.53;;;;;;;24.38;43.95;97345.50;5028646;28;20191;-73
2022/06/15 04:34:17;;;;;;;7.33;4.53;;;;;;;24.09;45.45;97345.63;5013350;28;20280;-73
2022/06/15 04:37:39;;;;;;;10.97;4.60;;;;;;;24.18;44.29;97348.22;5029752;28;20201;-73
2022/06/15 04:41:05;;;;;;;10.97;6.13;;;;;;;23.96;45.40;97351.22;5015826;28;20278;-72
2022/06/15 04:44:26;;;;;;;23.57;10.47;;;;;;;23.64;45.89;97350.75;5028020;28;20218;-73
2022/06/15 04:47:48;;;;;;;22.37;12.77;;;;;;;23.51;46.31;97354.69;5028697;28;20197;-73
2022/06/15 04:51:09;;;;;;;14.23;7.37;;;;;;;23.28;46.58;97349.69;5028785;28;20279;-72
2022/06/15 04:54:33;;;;;;;6.83;4.07;;;;;;;23.11;46.76;97352.19;5029404;28;20209;-72
2022/06/15 04:57:54;;;;;;;7.30;3.10;;;;;;;22.43;47.60;97361.81;5011150;28;20229;-73
2022/06/15 05:01:18;;;;;;;13.50;4.73;;;;;;;23.15;47.43;97359.72;5028131;28;20226;-73
2022/06/15 05:04:39;;;;;;;10.13;3.53;;;;;;;23.63;45.90;97362.31;5028922;28;20199;-73
2022/06/15 05:08:00;;;;;;;11.97;3.90;;;;;;;24.01;44.95;97364.00;5028839;28;20619;-73
2022/06/15 05:11:26;;;;;;;7.33;3.83;;;;;;;23.59;46.17;97360.94;5029011;28;20191;-72
2022/06/15 05:14:47;;;;;;;17.30;4.47;;;;;;;24.42;44.66;97368.06;5045478;28;20192;-74
2022/06/15 05:18:11;;;;;;;4.70;3.20;;;;;;;25.12;42.13;97359.38;5028654;28;20188;-73
2022/06/15 05:21:32;;;;;;;8.57;3.47;;;;;;;24.95;43.01;97363.69;5014778;28;20604;-72
2022/06/15 05:24:56;;;;;;;7.93;3.93;;;;;;;24.53;42.62;97375.78;5029428;28;20219;-73
2022/06/15 05:28:17;;;;;;;13.43;4.47;;;;;;;24.55;43.67;97374.66;5036176;28;20188;-73
2022/06/15 05:31:45;;;;;;;8.73;3.87;;;;;;;24.02;43.81;97376.25;5038769;28;20191;-73
2022/06/15 05:35:07;;;;;;;7.17;3.83;;;;;;;24.27;43.09;97380.09;5034713;28;20617;-72
2022/06/15 05:38:28;;;;;;;6.20;3.77;;;;;;;23.96;43.23;97384.78;5047449;28;20188;-73
2022/06/15 05:41:50;;;;;;;4.53;3.47;;;;;;;23.79;43.52;97375.78;5047213;28;20253;-73
2022/06/15 05:45:12;;;;;;;6.13;4.13;;;;;;;23.54;42.70;97379.03;5028413;28;20197;-72
2022/06/15 05:48:33;;;;;;;7.97;3.57;;;;;;;23.59;42.02;97386.53;5027260;28;20598;-73
2022/06/15 05:52:00;;;;;;;6.70;3.80;;;;;;;23.86;41.72;97382.19;5028964;28;20271;-74
2022/06/15 05:55:26;;;;;;;9.70;4.13;;;;;;;23.59;41.45;97362.75;5029238;28;20199;-72
2022/06/15 05:58:47;;;;;;;5.17;3.03;;;;;;;23.30;42.26;97399.75;5045525;28;20208;-73
2022/06/15 06:02:11;;;;;;;8.00;2.47;;;;;;;22.96;42.48;97403.75;5044341;28;20268;-73
2022/06/15 06:05:31;;;;;;;7.00;3.20;;;;;;;22.70;43.91;97410.53;5049304;28;20192;-72
2022/06/15 06:08:52;;;;;;;4.87;3.63;;;;;;;23.07;43.01;97411.56;5050279;28;20794;-73
2022/06/15 06:12:13;;;;;;;3.37;2.73;;;;;;;23.31;42.73;97409.34;5049701;28;20198;-72
2022/06/15 06:15:34;;;;;;;6.27;2.97;;;;;;;23.13;43.53;97416.31;5048035;28;20246;-72
2022/06/15 06:18:54;;;;;;;5.27;2.97;;;;;;;23.43;42.49;97413.56;5047698;28;20498;-73
2022/06/15 06:22:15;;;;;;;5.60;2.70;;;;;;;23.48;41.65;97416.63;5048856;28;20258;-72
2022/06/15 06:25:36;;;;;;;7.10;4.47;;;;;;;24.10;41.09;97414.31;5049075;28;20740;-72
2022/06/15 06:29:02;;;;;;;6.63;3.93;;;;;;;24.19;41.09;97416.06;5048427;28;20182;-72
2022/06/15 06:32:23;;;;;;;4.93;2.70;;;;;;;23.61;42.16;97419.81;5047775;28;20216;-72
2022/06/15 06:35:44;;;;;;;4.73;3.40;;;;;;;23.91;42.79;97422.25;5048295;28;20187;-72
2022/06/15 06:39:04;;;;;;;6.03;4.00;;;;;;;24.33;42.35;97411.28;5048750;28;20282;-73
2022/06/15 06:42:25;;;;;;;6.70;3.50;;;;;;;24.46;42.07;97415.25;5031124;28;20702;-72
2022/06/15 06:45:46;;;;;;;9.47;3.57;;;;;;;24.14;42.42;97418.31;4998735;28;20192;-73
2022/06/15 06:49:06;;;;;;;6.63;3.00;;;;;;;24.40;42.02;97415.84;5046370;28;20224;-74
2022/06/15 06:52:27;;;;;;;6.00;3.20;;;;;;;24.46;42.62;97411.78;5048550;28;20204;-73
2022/06/15 06:55:48;;;;;;;6.03;3.20;;;;;;;24.27;41.75;97417.16;5032632;28;20199;-73
2022/06/15 06:59:09;;;;;;;4.50;3.23;;;;;;;24.08;41.78;97416.25;5032090;28;20183;-73
2022/06/15 07:02:29;;;;;;;3.77;3.00;;;;;;;24.24;41.26;97384.72;5046683;28;20183;-73
2022/06/15 07:05:50;;;;;;;8.40;3.53;;;;;;;24.85;39.47;97415.94;5047343;28;20600;-73
2022/06/15 07:09:11;;;;;;;4.80;2.50;;;;;;;24.12;41.35;97420.28;5048701;28;20187;-73
2022/06/15 07:12:31;;;;;;;3.80;2.77;;;;;;;24.07;42.53;97425.16;5047923;28;20194;-73
2022/06/15 07:27:32;;;;;;;12.17;6.07;;;;;;;24.38;40.82;97414.34;5047319;28;20571;-73
2022/06/15 07:30:53;;;;;;;3.27;2.87;;;;;;;24.55;41.25;97427.63;5029354;28;20193;-71
2022/06/15 07:34:14;;;;;;;4.03;2.80;;;;;;;24.89;39.64;97417.28;5048091;28;20547;-72
2022/06/15 07:37:34;;;;;;;5.00;2.80;;;;;;;24.95;40.03;97422.00;5028301;28;20657;-72
2022/06/15 07:41:10;;;;;;;4.53;2.90;;;;;;;24.61;39.83;97431.50;5045371;28;20231;-72
2022/06/15 07:44:31;;;;;;;7.57;3.70;;;;;;;24.71;40.02;97421.69;5046876;28;20185;-72
2022/06/15 07:51:43;;;;;;;3.63;2.60;;;;;;;24.49;40.93;97433.50;5047251;28;20567;-73
2022/06/15 07:55:04;;;;;;;5.77;2.80;;;;;;;24.50;40.48;97429.06;5046242;28;20195;-71
2022/06/15 07:58:25;;;;;;;5.30;4.33;;;;;;;24.72;40.08;97424.19;5045048;28;20622;-71
2022/06/15 08:01:45;;;;;;;5.43;3.00;;;;;;;25.00;39.20;97423.22;5046843;28;20302;-72
2022/06/15 08:05:06;;;;;;;6.47;3.27;;;;;;;25.43;38.66;97425.13;5047040;28;20214;-72
2022/06/15 08:08:27;;;;;;;3.73;2.80;;;;;;;25.71;38.93;97424.06;5046651;28;20237;-71
2022/06/15 08:15:27;;;;;;;6.23;2.97;;;;;;;25.90;38.29;97420.38;5027610;28;20222;-73
2022/06/15 08:18:51;;;;;;;8.07;4.13;;;;;;;25.87;38.29;97419.84;5029036;28;20297;-73
2022/06/15 08:22:11;;;;;;;5.83;2.73;;;;;;;26.04;37.80;97418.97;5031244;28;20186;-73
2022/06/15 08:25:32;;;;;;;5.63;2.50;;;;;;;26.03;38.06;97418.13;5013642;28;20661;-72
2022/06/15 08:28:56;;;;;;;5.23;2.60;;;;;;;26.09;37.70;97420.19;5024401;28;20275;-73
2022/06/15 08:32:16;;;;;;;4.27;2.47;;;;;;;26.45;36.58;97418.22;5027063;28;20232;-72
2022/06/15 08:35:38;;;;;;;6.37;3.10;;;;;;;26.49;37.15;97409.78;5027945;28;20692;-73
2022/06/15 08:38:59;;;;;;;5.97;3.73;;;;;;;26.46;37.52;97419.91;5027415;28;20202;-72
2022/06/15 08:42:09;;;;;;;6.53;3.57;;;;;;;26.39;37.49;97413.56;5025424;28;20240;-72
2022/06/15 08:45:15;;;;;;;4.83;3.10;;;;;;;26.37;37.71;97423.50;5025618;28;20201;-72
2022/06/15 08:48:01;;;;;;;4.17;3.10;;;;;;;26.32;38.06;97420.47;5025658;28;20193;-73
2022/06/15 08:51:22;;;;;;;4.10;3.30;;;;;;;26.35;37.20;97420.19;5026776;28;20604;-73
2022/06/15 08:54:17;;;;;;;6.10;4.27;;;;;;;26.63;37.43;97431.44;5025246;28;20604;-73
2022/06/15 08:57:38;;;;;;;4.97;3.73;;;;;;;26.38;37.85;97433.13;5010683;28;20194;-73
2022/06/15 09:00:51;;;;;;;3.67;3.10;;;;;;;26.57;37.35;97428.41;5027369;28;20230;-72
2022/06/15 09:03:34;;;;;;;3.40;2.73;;;;;;;26.75;37.19;97431.00;5026508;28;20186;-74
2022/06/15 09:06:45;;;;;;;6.50;3.97;;;;;;;26.49;38.24;97431.03;5025699;28;20186;-72
2022/06/15 09:09:41;;;;;;;4.87;3.23;;;;;;;26.33;38.27;97427.47;5027128;28;20626;-72
2022/06/15 09:12:53;;;;;;;10.70;4.40;;;;;;;26.55;37.96;97432.22;5026635;28;20199;-72
2022/06/15 09:16:22;;;;;;;4.30;2.90;;;;;;;26.61;37.92;97428.91;5025139;28;20183;-71
2022/06/15 09:19:43;;;;;;;9.30;5.90;;;;;;;26.74;38.67;97433.81;5026373;28;20190;-72
2022/06/15 09:23:04;;;;;;;4.37;2.90;;;;;;;26.59;38.12;97446.84;5026648;28;20230;-72
2022/06/15 09:26:26;;;;;;;5.40;4.63;;;;;;;26.78;37.24;97422.72;5025560;28;20195;-72
2022/06/15 09:29:50;;;;;;;6.43;4.53;;;;;;;26.85;37.67;97431.72;5026390;28;20263;-72
2022/06/15 09:33:10;;;;;;;10.43;3.33;;;;;;;27.01;37.62;97442.41;5028726;28;20295;-72
2022/06/15 09:36:37;;;;;;;4.77;3.23;;;;;;;27.15;37.54;97428.47;5045628;28;20629;-72
2022/06/15 09:39:59;;;;;;;6.83;3.43;;;;;;;27.48;37.21;97436.50;5050464;28;20190;-72
2022/06/15 09:43:30;;;;;;;6.47;3.17;;;;;;;27.34;37.07;97441.50;5049666;28;20190;-72
2022/06/15 09:46:39;;;;;;;7.07;3.90;;;;;;;26.42;38.25;97431.84;5047745;28;20201;-73
2022/06/15 09:49:25;;;;;;;5.10;3.43;;;;;;;26.37;39.00;97427.00;5031203;28;20221;-72
2022/06/15 09:52:33;;;;;;;5.60;3.00;;;;;;;26.52;38.81;97429.91;5032210;28;20257;-72
2022/06/15 09:56:09;;;;;;;5.27;3.60;;;;;;;27.16;38.19;97424.78;5048470;28;20624;-72
2022/06/15 09:59:33;;;;;;;4.47;2.77;;;;;;;27.29;37.63;97434.97;5030118;28;20190;-73
2022/06/15 10:02:54;;;;;;;3.60;2.93;;;;;;;27.27;37.53;97432.47;5030169;28;20247;-72
2022/06/15 10:06:14;;;;;;;6.00;3.43;;;;;;;27.49;36.74;97427.53;5031596;28;20218;-73
2022/06/15 10:09:35;;;;;;;4.90;3.30;;;;;;;27.37;36.84;97425.19;5031304;28;20689;-72
2022/06/15 10:16:16;;;;;;;9.83;8.23;;;;;;;27.57;35.97;97417.75;5047261;28;20657;-72
2022/06/15 10:19:37;;;;;;;4.53;3.53;;;;;;;27.74;36.34;97422.03;5049502;28;20669;-74
2022/06/15 10:23:07;;;;;;;3.30;2.77;;;;;;;27.68;36.58;97413.88;5048960;28;20186;-74
2022/06/15 10:26:28;;;;;;;3.87;3.20;;;;;;;27.59;36.62;97420.22;5031188;28;20222;-73
2022/06/15 10:29:15;;;;;;;4.53;3.23;;;;;;;27.73;36.92;97416.88;5029775;28;20190;-73
2022/06/15 10:32:39;;;;;;;3.30;2.83;;;;;;;27.64;36.53;97418.72;5031419;28;20785;-73
2022/06/15 10:36:00;;;;;;;3.57;3.27;;;;;;;27.70;37.54;97407.41;5049392;28;20277;-73
2022/06/15 10:39:23;;;;;;;5.17;3.67;;;;;;;27.67;37.39;97413.06;5031039;28;20202;-73
2022/06/15 10:42:30;;;;;;;6.77;5.33;;;;;;;28.16;36.83;97396.06;5047468;28;20212;-73
2022/06/15 10:45:49;;;;;;;5.40;3.10;;;;;;;28.33;36.14;97401.31;5032408;28;20782;-73
2022/06/15 10:49:05;;;;;;;6.37;3.27;;;;;;;28.20;36.30;97399.19;5048481;28;20185;-73
2022/06/15 10:52:26;;;;;;;4.67;2.70;;;;;;;28.37;35.61;97398.16;5048241;28;20275;-73
2022/06/15 11:03:12;;;;;;;4.80;3.03;;;;;;;27.33;36.65;97399.88;5048149;28;20190;-72
2022/06/15 11:06:33;;;;;;;7.17;3.33;;;;;;;27.26;37.76;97396.25;5048327;28;20197;-72
2022/06/15 11:10:02;;;;;;;5.97;2.97;;;;;;;27.31;37.85;97401.03;5048553;28;20197;-72
2022/06/15 11:13:26;;;;;;;3.97;3.43;;;;;;;27.49;37.02;97393.78;5046572;28;20247;-72
2022/06/15 11:20:31;;;;;;;4.20;3.47;;;;;;;27.77;37.18;97400.41;5047478;28;20241;-73
2022/06/15 11:23:31;;;;;;;3.70;3.27;;;;;;;27.07;38.21;97399.19;4992701;28;20202;-72
2022/06/15 11:29:48;;;;;;;5.63;3.53;;;;;;;27.37;37.59;97400.41;5046807;28;20685;-72
2022/06/15 11:33:08;;;;;;;3.67;2.90;;;;;;;27.51;37.18;97402.44;5047406;28;20182;-73
2022/06/15 11:36:34;;;;;;;5.03;3.10;;;;;;;27.29;37.99;97395.91;5048127;28;20252;-73
2022/06/15 11:40:04;;;;;;;4.37;3.30;;;;;;;26.81;38.56;97394.97;5045720;28;20210;-73
2022/06/15 11:43:25;;;;;;;3.17;2.40;;;;;;;26.18;39.17;97400.66;5030346;28;20627;-72
2022/06/15 11:46:27;;;;;;;4.87;3.30;;;;;;;26.22;39.52;97402.00;5046163;28;20213;-71
2022/06/15 11:49:49;;;;;;;5.50;2.60;;;;;;;26.21;39.16;97404.84;5047889;28;20181;-72
2022/06/15 11:52:55;;;;;;;4.77;3.13;;;;;;;26.03;40.23;97396.88;5047005;28;20193;-71
2022/06/15 11:56:05;;;;;;;6.10;3.00;;;;;;;25.83;41.15;97401.59;5045742;28;20576;-72
2022/06/15 11:59:35;;;;;;;4.10;2.60;;;;;;;26.06;41.24;97393.09;5046068;28;20231;-72
2022/06/15 12:02:21;;;;;;;4.47;2.97;;;;;;;25.61;41.03;97395.94;5047040;28;20219;-72
2022/06/15 12:05:30;;;;;;;4.27;3.03;;;;;;;25.55;41.22;97396.56;5047260;28;20212;-71
2022/06/15 12:09:09;;;;;;;2.87;2.50;;;;;;;25.54;41.85;97389.59;5045461;28;20203;-71
2022/06/15 12:15:33;;;;;;;5.60;3.57;;;;;;;26.12;41.34;97389.84;5046854;28;20279;-71
2022/06/15 12:18:34;;;;;;;7.07;3.37;;;;;;;25.93;43.09;97390.00;4998411;28;20196;-71
2022/06/15 12:21:50;;;;;;;7.50;4.00;;;;;;;25.93;42.80;97398.81;5044912;28;20736;-72
2022/06/15 12:24:37;;;;;;;5.17;3.40;;;;;;;26.08;43.24;97401.75;5027258;28;20220;-73
2022/06/15 12:28:11;;;;;;;3.80;3.07;;;;;;;26.06;43.34;97401.06;5007650;28;20311;-73
2022/06/15 12:31:12;;;;;;;6.07;3.27;;;;;;;26.20;43.24;97393.38;5005611;28;20194;-71
2022/06/15 12:34:50;;;;;;;6.53;3.40;;;;;;;26.36;42.91;97396.09;5005333;28;20744;-72
2022/06/15 13:44:53;;;;;;;7.13;4.30;;;;;;;25.28;47.18;97384.22;5099917;28;20224;-72
2022/06/15 13:47:25;;;;;;;6.33;4.17;;;;;;;25.58;45.89;97391.78;5097363;28;20311;-70
2022/06/15 13:49:59;;;;;;;4.73;4.20;;;;;;;25.74;44.76;97375.97;5090665;28;20187;-72
2022/06/15 13:52:33;;;;;;;9.47;4.43;;;;;;;25.69;45.35;97351.75;5100352;28;20202;-72
2022/06/15 13:55:05;;;;;;;8.77;4.80;;;;;;;26.13;45.09;97383.56;5097280;28;20318;-73
2022/06/15 13:57:40;;;;;;;5.30;4.40;;;;;;;26.27;44.75;97382.94;5108984;28;20195;-74
2022/06/15 14:00:19;;;;;;;4.47;3.70;;;;;;;25.91;44.98;97376.91;5089275;28;20243;-73
2022/06/15 14:03:24;;;;;;;11.07;5.03;;;;;;;26.18;45.46;97379.41;5090599;28;20214;-73
2022/06/15 14:06:10;;;;;;;9.33;5.50;;;;;;;26.28;43.71;97372.16;5069906;28;20254;-72
2022/06/15 14:08:58;;;;;;;6.63;4.33;;;;;;;26.39;44.60;97376.38;5067698;28;20358;-73
2022/06/15 14:11:53;;;;;;;5.37;4.47;;;;;;;26.32;44.18;97377.97;5087891;28;20193;-73
2022/06/15 14:14:27;;;;;;;12.17;6.87;;;;;;;26.51;44.21;97385.72;5068468;28;20208;-73
2022/06/15 14:17:18;;;;;;;8.60;5.27;;;;;;;26.49;44.93;97382.38;5086027;28;20196;-73
2022/06/15 14:20:05;;;;;;;6.30;5.70;;;;;;;26.42;45.45;97376.88;5087263;28;20231;-73
2022/06/15 14:23:01;;;;;;;8.17;4.67;;;;;;;26.52;45.19;97374.09;5055944;28;20210;-73
2022/06/15 14:25:50;;;;;;;7.93;5.70;;;;;;;26.62;45.29;97382.78;5089549;28;20202;-74
2022/06/15 14:28:24;;;;;;;9.20;5.47;;;;;;;26.63;45.23;97378.28;5090532;28;20220;-73
2022/06/15 14:31:15;;;;;;;5.97;5.10;;;;;;;26.61;45.05;97375.78;5088540;28;20208;-73
2022/06/15 14:33:43;;;;;;;7.90;5.00;;;;;;;26.66;45.20;97375.28;5066386;28;20215;-73
2022/06/15 14:36:17;;;;;;;9.20;5.13;;;;;;;26.50;45.69;97368.13;5089570;28;20193;-73
2022/06/15 14:38:59;;;;;;;5.80;5.20;;;;;;;26.25;45.95;97367.19;5070759;28;20194;-73
2022/06/15 14:41:30;;;;;;;7.13;4.60;;;;;;;26.14;45.71;97369.28;5071794;28;20662;-73
2022/06/15 14:43:58;;;;;;;6.00;4.80;;;;;;;26.28;46.06;97360.69;5088307;28;20200;-74
2022/06/15 14:46:38;;;;;;;7.90;4.90;;;;;;;26.24;46.04;97356.69;5090097;28;20216;-73
2022/06/15 14:49:07;;;;;;;8.20;4.83;;;;;;;26.46;44.22;97353.50;5089365;28;20192;-72
2022/06/15 14:51:35;;;;;;;5.20;4.40;;;;;;;26.58;43.12;97353.00;5088184;28;20203;-72
2022/06/15 14:54:12;;;;;;;5.83;4.50;;;;;;;26.82;42.67;97360.25;5090135;28;20845;-71
2022/06/15 14:56:45;;;;;;;7.63;4.53;;;;;;;26.89;42.16;97349.81;5088246;28;20644;-73
2022/06/15 14:59:17;;;;;;;8.33;5.03;;;;;;;26.82;42.31;97344.31;5089578;28;20196;-71
2022/06/15 15:01:55;;;;;;;4.90;4.03;;;;;;;26.63;42.98;97344.56;5053223;28;20685;-71
2022/06/15 15:04:31;;;;;;;9.17;4.33;;;;;;;26.53;42.73;97346.53;5088245;28;20223;-73
2022/06/15 15:09:51;;;;;;;7.53;4.53;;;;;;;26.50;44.23;97354.84;5087845;28;20927;-73
2022/06/15 15:12:21;;;;;;;9.53;6.20;;;;;;;26.48;44.89;97340.88;5071517;28;20207;-72
2022/06/15 15:14:53;;;;;;;7.70;5.03;;;;;;;26.53;44.04;97359.81;5070591;28;20642;-72
2022/06/15 15:17:21;;;;;;;5.67;4.50;;;;;;;26.44;43.73;97348.31;5088475;28;20185;-73
2022/06/15 15:19:48;;;;;;;10.70;4.70;;;;;;;26.45;43.73;97339.38;5089420;28;20605;-72
2022/06/15 15:22:21;;;;;;;8.53;5.30;;;;;;;26.53;44.56;97343.88;5053072;28;20209;-73
2022/06/15 15:25:01;;;;;;;9.03;5.37;;;;;;;26.42;45.37;97352.97;5089039;28;20199;-72
2022/06/15 15:36:10;;;;;;;8.00;5.60;;;;;;;26.33;47.19;97361.06;5086904;28;20643;-74
2022/06/15 15:38:37;;;;;;;9.20;6.07;;;;;;;26.33;46.99;97358.41;5088993;28;20196;-71
2022/06/15 15:41:07;;;;;;;9.27;5.47;;;;;;;26.25;47.17;97364.53;5089066;28;20225;-74
2022/06/15 15:43:37;;;;;;;13.00;5.93;;;;;;;26.23;46.52;97366.50;5087447;28;20283;-74
2022/06/15 15:46:04;;;;;;;8.30;6.70;;;;;;;26.18;46.40;97365.31;5087564;28;20248;-74
2022/06/15 15:48:32;;;;;;;10.33;5.87;;;;;;;25.92;47.46;97353.88;5068729;28;20207;-75
2022/06/15 15:50:59;;;;;;;7.50;5.87;;;;;;;26.05;47.95;97362.25;5089240;28;20739;-74
2022/06/15 15:53:26;;;;;;;6.17;5.50;;;;;;;26.13;47.34;97364.97;5087565;28;20687;-74
2022/06/15 15:55:55;;;;;;;6.77;5.53;;;;;;;26.10;47.61;97357.31;5088478;28;20698;-75
2022/06/15 15:58:29;;;;;;;6.53;5.40;;;;;;;26.16;47.10;97362.81;5088986;28;20196;-74
2022/06/15 16:00:57;;;;;;;5.37;4.80;;;;;;;26.27;46.74;97359.91;5087370;28;20776;-74
2022/06/15 16:03:24;;;;;;;8.47;5.50;;;;;;;26.27;46.25;97361.72;5070776;28;20683;-75
2022/06/15 16:05:51;;;;;;;7.00;5.40;;;;;;;26.36;46.30;97360.72;5087183;28;20984;-73
2022/06/15 16:08:22;;;;;;;7.20;5.33;;;;;;;26.22;46.24;97364.84;5089306;28;20209;-73
2022/06/15 16:10:51;;;;;;;6.23;5.20;;;;;;;26.01;47.67;97359.03;5087696;28;20222;-74
2022/06/15 16:13:20;;;;;;;6.43;5.50;;;;;;;25.61;47.60;97351.69;5088212;28;20203;-75
2022/06/15 16:15:51;;;;;;;7.60;6.00;;;;;;;25.11;49.05;97366.50;5070843;28;20195;-73
2022/06/15 16:18:20;;;;;;;6.17;5.43;;;;;;;25.00;49.14;97370.19;5086987;28;20194;-71
2022/06/15 16:20:48;;;;;;;8.10;6.27;;;;;;;24.88;49.71;97333.47;5088387;28;20221;-74
2022/06/15 16:23:19;;;;;;;12.73;6.50;;;;;;;24.97;49.34;97365.22;5068581;28;20205;-75
2022/06/15 16:25:46;;;;;;;7.90;6.93;;;;;;;25.02;49.91;97367.38;5088384;28;20582;-74
2022/06/15 16:28:16;;;;;;;7.37;6.43;;;;;;;24.77;51.44;97370.81;5087487;28;20293;-73
2022/06/15 16:30:43;;;;;;;6.50;5.90;;;;;;;24.79;51.06;97364.34;5087537;28;20193;-73
2022/06/15 16:33:11;;;;;;;7.07;5.93;;;;;;;24.61;51.77;97370.56;5088121;28;20203;-75
2022/06/15 16:35:41;;;;;;;8.97;6.43;;;;;;;24.43;52.00;97375.00;5086546;28;20200;-73
2022/06/15 16:38:12;;;;;;;6.70;6.10;;;;;;;24.39;52.80;97373.63;5088366;28;20657;-72
2022/06/15 16:40:40;;;;;;;6.60;5.90;;;;;;;24.50;53.11;97376.94;5086579;28;20306;-73
2022/06/15 16:43:07;;;;;;;6.10;5.50;;;;;;;24.70;51.82;97381.13;5088119;28;20281;-73
2022/06/15 16:45:36;;;;;;;7.53;6.17;;;;;;;24.82;51.49;97376.47;5068991;28;20249;-74